sensor_id;sensor_type;location;lat;lon;timestamp;temperature;humidity
6106;DHT22;3083;51.508;7.966;2022-11-04T00:01:25;11.60;99.90
6106;DHT22;3083;51.508;7.966;2022-11-04T00:03:53;11.60;99.90
6106;DHT22;3083;51.508;7.966;2022-11-04T00:06:21;11.60;99.90
6106;DHT22;3083;51.508;7.966;2022-11-04T00:08:49;11.60;99.90
6106;DHT22;3083;51.508;7.966;2022-11-04T00:11:16;11.60;99.90
6106;DHT22;3083;51.508;7.966;2022-11-04T00:14:01;11.60;99.90
6106;DHT22;3083;51.508;7.966;2022-11-04T00:16:28;11.60;99.90
6106;DHT22;3083;51.508;7.966;2022-11-04T00:19:12;11.60;99.90
6106;DHT22;3083;51.508;7.966;2022-11-04T00:21:41;11.60;99.90
6106;DHT22;3083;51.508;7.966;2022-11-04T00:24:25;11.60;99.90
6106;DHT22;3083;51.508;7.966;2022-11-04T00:27:21;11.60;99.90
6106;DHT22;3083;51.508;7.966;2022-11-04T00:30:08;11.50;99.90
6106;DHT22;3083;51.508;7.966;2022-11-04T00:32:35;11.40;99.90
6106;DHT22;3083;51.508;7.966;2022-11-04T00:35:20;11.30;99.90
6106;DHT22;3083;51.508;7.966;2022-11-04T00:37:49;11.20;99.90
6106;DHT22;3083;51.508;7.966;2022-11-04T00:40:16;11.10;99.90
6106;DHT22;3083;51.508;7.966;2022-11-04T00:42:44;11.10;99.90
6106;DHT22;3083;51.508;7.966;2022-11-04T00:45:12;11.00;99.90
6106;DHT22;3083;51.508;7.966;2022-11-04T00:47:39;11.00;99.90
6106;DHT22;3083;51.508;7.966;2022-11-04T00:50:07;10.90;99.90
6106;DHT22;3083;51.508;7.966;2022-11-04T00:52:34;10.90;99.90
6106;DHT22;3083;51.508;7.966;2022-11-04T00:55:03;10.80;99.90
6106;DHT22;3083;51.508;7.966;2022-11-04T00:57:30;10.80;99.90
6106;DHT22;3083;51.508;7.966;2022-11-04T00:59:57;10.70;99.90
6106;DHT22;3083;51.508;7.966;2022-11-04T01:02:24;10.60;99.90
6106;DHT22;3083;51.508;7.966;2022-11-04T01:04:51;10.50;99.90
6106;DHT22;3083;51.508;7.966;2022-11-04T01:07:18;10.40;99.90
6106;DHT22;3083;51.508;7.966;2022-11-04T01:09:45;10.40;99.90
6106;DHT22;3083;51.508;7.966;2022-11-04T01:12:13;10.30;99.90
6106;DHT22;3083;51.508;7.966;2022-11-04T01:14:41;10.30;99.90
6106;DHT22;3083;51.508;7.966;2022-11-04T01:17:08;10.30;99.90
6106;DHT22;3083;51.508;7.966;2022-11-04T01:19:35;10.30;99.90
6106;DHT22;3083;51.508;7.966;2022-11-04T01:22:02;10.30;99.90
6106;DHT22;3083;51.508;7.966;2022-11-04T01:24:29;10.20;99.90
6106;DHT22;3083;51.508;7.966;2022-11-04T01:26:56;10.20;99.90
6106;DHT22;3083;51.508;7.966;2022-11-04T01:29:24;10.10;99.90
6106;DHT22;3083;51.508;7.966;2022-11-04T01:31:51;10.10;99.90
6106;DHT22;3083;51.508;7.966;2022-11-04T01:34:18;10.10;99.90
6106;DHT22;3083;51.508;7.966;2022-11-04T01:36:45;10.10;99.90
6106;DHT22;3083;51.508;7.966;2022-11-04T01:39:12;10.10;99.90
6106;DHT22;3083;51.508;7.966;2022-11-04T01:41:39;10.10;99.90
6106;DHT22;3083;51.508;7.966;2022-11-04T01:47:04;10.10;99.90
6106;DHT22;3083;51.508;7.966;2022-11-04T01:49:33;10.10;99.90
6106;DHT22;3083;51.508;7.966;2022-11-04T01:52:05;10.10;99.90
6106;DHT22;3083;51.508;7.966;2022-11-04T01:54:33;10.10;99.90
6106;DHT22;3083;51.508;7.966;2022-11-04T01:57:03;10.10;99.90
6106;DHT22;3083;51.508;7.966;2022-11-04T01:59:35;10.10;99.90
6106;DHT22;3083;51.508;7.966;2022-11-04T02:02:04;10.10;99.90
6106;DHT22;3083;51.508;7.966;2022-11-04T02:04:31;10.10;99.90
6106;DHT22;3083;51.508;7.966;2022-11-04T02:06:59;10.10;99.90
6106;DHT22;3083;51.508;7.966;2022-11-04T02:09:28;10.10;99.90
6106;DHT22;3083;51.508;7.966;2022-11-04T02:11:56;10.10;99.90
6106;DHT22;3083;51.508;7.966;2022-11-04T02:14:41;10.10;99.90
6106;DHT22;3083;51.508;7.966;2022-11-04T02:17:19;10.00;99.90
6106;DHT22;3083;51.508;7.966;2022-11-04T02:20:06;10.00;99.90
6106;DHT22;3083;51.508;7.966;2022-11-04T02:25:50;10.00;99.90
6106;DHT22;3083;51.508;7.966;2022-11-04T02:28:37;10.00;99.90
6106;DHT22;3083;51.508;7.966;2022-11-04T02:31:13;10.00;99.90
6106;DHT22;3083;51.508;7.966;2022-11-04T02:33:47;10.00;99.90
6106;DHT22;3083;51.508;7.966;2022-11-04T02:36:23;9.90;99.90
6106;DHT22;3083;51.508;7.966;2022-11-04T02:38:56;9.90;99.90
6106;DHT22;3083;51.508;7.966;2022-11-04T02:41:29;9.90;99.90
6106;DHT22;3083;51.508;7.966;2022-11-04T02:44:07;9.90;99.90
6106;DHT22;3083;51.508;7.966;2022-11-04T02:46:45;9.90;99.90
6106;DHT22;3083;51.508;7.966;2022-11-04T02:49:18;9.80;99.90
6106;DHT22;3083;51.508;7.966;2022-11-04T02:51:49;9.80;99.90
6106;DHT22;3083;51.508;7.966;2022-11-04T02:54:23;9.80;99.90
6106;DHT22;3083;51.508;7.966;2022-11-04T02:56:54;9.80;99.90
6106;DHT22;3083;51.508;7.966;2022-11-04T02:59:27;9.80;99.90
6106;DHT22;3083;51.508;7.966;2022-11-04T03:01:58;9.70;99.90
6106;DHT22;3083;51.508;7.966;2022-11-04T03:04:29;9.70;99.90
6106;DHT22;3083;51.508;7.966;2022-11-04T03:06:58;9.70;99.90
6106;DHT22;3083;51.508;7.966;2022-11-04T03:09:27;9.80;99.90
6106;DHT22;3083;51.508;7.966;2022-11-04T03:11:59;9.80;99.90
6106;DHT22;3083;51.508;7.966;2022-11-04T03:14:31;9.80;99.90
6106;DHT22;3083;51.508;7.966;2022-11-04T03:17:06;9.90;99.90
6106;DHT22;3083;51.508;7.966;2022-11-04T03:19:40;9.90;99.90
6106;DHT22;3083;51.508;7.966;2022-11-04T03:22:11;9.80;99.90
6106;DHT22;3083;51.508;7.966;2022-11-04T03:24:39;9.80;99.90
6106;DHT22;3083;51.508;7.966;2022-11-04T03:27:14;9.80;99.90
6106;DHT22;3083;51.508;7.966;2022-11-04T03:29:53;9.70;99.90
6106;DHT22;3083;51.508;7.966;2022-11-04T03:32:25;9.70;99.90
6106;DHT22;3083;51.508;7.966;2022-11-04T03:34:55;9.60;99.90
6106;DHT22;3083;51.508;7.966;2022-11-04T03:37:22;9.50;99.90
6106;DHT22;3083;51.508;7.966;2022-11-04T03:39:49;9.50;99.90
6106;DHT22;3083;51.508;7.966;2022-11-04T03:42:17;9.50;99.90
6106;DHT22;3083;51.508;7.966;2022-11-04T03:44:49;9.40;99.90
6106;DHT22;3083;51.508;7.966;2022-11-04T03:47:19;9.40;99.90
6106;DHT22;3083;51.508;7.966;2022-11-04T03:49:49;9.40;99.90
6106;DHT22;3083;51.508;7.966;2022-11-04T03:52:17;9.30;99.90
6106;DHT22;3083;51.508;7.966;2022-11-04T03:54:45;9.30;99.90
6106;DHT22;3083;51.508;7.966;2022-11-04T03:57:25;9.30;99.90
6106;DHT22;3083;51.508;7.966;2022-11-04T04:00:05;9.20;99.90
6106;DHT22;3083;51.508;7.966;2022-11-04T04:02:58;9.20;99.90
6106;DHT22;3083;51.508;7.966;2022-11-04T04:05:30;9.10;99.90
6106;DHT22;3083;51.508;7.966;2022-11-04T04:08:07;9.10;99.90
6106;DHT22;3083;51.508;7.966;2022-11-04T04:10:40;9.00;99.90
6106;DHT22;3083;51.508;7.966;2022-11-04T04:13:18;9.00;99.90
6106;DHT22;3083;51.508;7.966;2022-11-04T04:15:52;9.00;99.90
6106;DHT22;3083;51.508;7.966;2022-11-04T04:18:28;9.00;99.90
6106;DHT22;3083;51.508;7.966;2022-11-04T04:20:59;8.90;99.90
6106;DHT22;3083;51.508;7.966;2022-11-04T04:23:29;8.90;99.90
6106;DHT22;3083;51.508;7.966;2022-11-04T04:26:18;8.90;99.90
6106;DHT22;3083;51.508;7.966;2022-11-04T04:29:04;8.80;99.90
6106;DHT22;3083;51.508;7.966;2022-11-04T04:31:35;8.80;99.90
6106;DHT22;3083;51.508;7.966;2022-11-04T04:34:20;8.70;99.90
6106;DHT22;3083;51.508;7.966;2022-11-04T04:36:56;8.70;99.90
6106;DHT22;3083;51.508;7.966;2022-11-04T04:39:28;8.60;99.90
6106;DHT22;3083;51.508;7.966;2022-11-04T04:42:14;8.60;99.90
6106;DHT22;3083;51.508;7.966;2022-11-04T04:45:01;8.60;99.90
6106;DHT22;3083;51.508;7.966;2022-11-04T04:47:40;8.50;99.90
6106;DHT22;3083;51.508;7.966;2022-11-04T04:50:09;8.50;99.90
6106;DHT22;3083;51.508;7.966;2022-11-04T04:52:39;8.50;99.90
6106;DHT22;3083;51.508;7.966;2022-11-04T04:55:08;8.50;99.90
6106;DHT22;3083;51.508;7.966;2022-11-04T04:57:35;8.40;99.90
6106;DHT22;3083;51.508;7.966;2022-11-04T05:00:03;8.40;99.90
6106;DHT22;3083;51.508;7.966;2022-11-04T05:02:31;8.40;99.90
6106;DHT22;3083;51.508;7.966;2022-11-04T05:04:57;8.40;99.90
6106;DHT22;3083;51.508;7.966;2022-11-04T05:07:26;8.40;99.90
6106;DHT22;3083;51.508;7.966;2022-11-04T05:09:54;8.40;99.90
6106;DHT22;3083;51.508;7.966;2022-11-04T05:12:21;8.30;99.90
6106;DHT22;3083;51.508;7.966;2022-11-04T05:14:48;8.30;99.90
6106;DHT22;3083;51.508;7.966;2022-11-04T05:17:15;8.30;99.90
6106;DHT22;3083;51.508;7.966;2022-11-04T05:19:42;8.30;99.90
6106;DHT22;3083;51.508;7.966;2022-11-04T05:22:09;8.30;99.90
6106;DHT22;3083;51.508;7.966;2022-11-04T05:24:36;8.30;99.90
6106;DHT22;3083;51.508;7.966;2022-11-04T05:27:04;8.30;99.90
6106;DHT22;3083;51.508;7.966;2022-11-04T05:29:31;8.30;99.90
6106;DHT22;3083;51.508;7.966;2022-11-04T05:31:58;8.30;99.90
6106;DHT22;3083;51.508;7.966;2022-11-04T05:34:25;8.20;99.90
6106;DHT22;3083;51.508;7.966;2022-11-04T05:36:51;8.20;99.90
6106;DHT22;3083;51.508;7.966;2022-11-04T05:39:18;8.20;99.90
6106;DHT22;3083;51.508;7.966;2022-11-04T05:41:45;8.20;99.90
6106;DHT22;3083;51.508;7.966;2022-11-04T05:44:13;8.30;99.90
6106;DHT22;3083;51.508;7.966;2022-11-04T05:46:40;8.30;99.90
6106;DHT22;3083;51.508;7.966;2022-11-04T05:49:08;8.40;99.90
6106;DHT22;3083;51.508;7.966;2022-11-04T05:51:36;8.40;99.90
6106;DHT22;3083;51.508;7.966;2022-11-04T05:54:03;8.50;99.90
6106;DHT22;3083;51.508;7.966;2022-11-04T05:56:30;8.50;99.90
6106;DHT22;3083;51.508;7.966;2022-11-04T05:58:57;8.50;99.90
6106;DHT22;3083;51.508;7.966;2022-11-04T06:01:29;8.60;99.90
6106;DHT22;3083;51.508;7.966;2022-11-04T06:03:57;8.60;99.90
6106;DHT22;3083;51.508;7.966;2022-11-04T06:06:26;8.70;99.90
6106;DHT22;3083;51.508;7.966;2022-11-04T06:08:54;8.70;99.90
6106;DHT22;3083;51.508;7.966;2022-11-04T06:11:22;8.70;99.90
6106;DHT22;3083;51.508;7.966;2022-11-04T06:13:49;8.70;99.90
6106;DHT22;3083;51.508;7.966;2022-11-04T06:16:16;8.60;99.90
6106;DHT22;3083;51.508;7.966;2022-11-04T06:18:45;8.60;99.90
6106;DHT22;3083;51.508;7.966;2022-11-04T06:21:22;8.60;99.90
6106;DHT22;3083;51.508;7.966;2022-11-04T06:23:51;8.50;99.90
6106;DHT22;3083;51.508;7.966;2022-11-04T06:26:19;8.50;99.90
6106;DHT22;3083;51.508;7.966;2022-11-04T06:28:46;8.50;99.90
6106;DHT22;3083;51.508;7.966;2022-11-04T06:31:13;8.50;99.90
6106;DHT22;3083;51.508;7.966;2022-11-04T06:33:41;8.40;99.90
6106;DHT22;3083;51.508;7.966;2022-11-04T06:36:11;8.40;99.90
6106;DHT22;3083;51.508;7.966;2022-11-04T06:38:40;8.40;99.90
6106;DHT22;3083;51.508;7.966;2022-11-04T06:41:10;8.50;99.90
6106;DHT22;3083;51.508;7.966;2022-11-04T06:43:38;8.50;99.90
6106;DHT22;3083;51.508;7.966;2022-11-04T06:46:05;8.60;99.90
6106;DHT22;3083;51.508;7.966;2022-11-04T06:48:32;8.60;99.90
6106;DHT22;3083;51.508;7.966;2022-11-04T06:51:00;8.60;99.90
6106;DHT22;3083;51.508;7.966;2022-11-04T06:53:28;8.70;99.90
6106;DHT22;3083;51.508;7.966;2022-11-04T06:56:01;8.70;99.90
6106;DHT22;3083;51.508;7.966;2022-11-04T06:58:30;8.80;99.90
6106;DHT22;3083;51.508;7.966;2022-11-04T07:00:57;8.80;99.90
6106;DHT22;3083;51.508;7.966;2022-11-04T07:03:24;8.90;99.90
6106;DHT22;3083;51.508;7.966;2022-11-04T07:05:51;8.90;99.90
6106;DHT22;3083;51.508;7.966;2022-11-04T07:08:18;8.90;99.90
6106;DHT22;3083;51.508;7.966;2022-11-04T07:10:46;9.00;99.90
6106;DHT22;3083;51.508;7.966;2022-11-04T07:13:13;9.00;99.90
6106;DHT22;3083;51.508;7.966;2022-11-04T07:15:41;9.00;99.90
6106;DHT22;3083;51.508;7.966;2022-11-04T07:18:08;9.10;99.90
6106;DHT22;3083;51.508;7.966;2022-11-04T07:20:35;9.10;99.90
6106;DHT22;3083;51.508;7.966;2022-11-04T07:23:03;9.10;99.90
6106;DHT22;3083;51.508;7.966;2022-11-04T07:25:30;9.20;99.90
6106;DHT22;3083;51.508;7.966;2022-11-04T07:27:58;9.20;99.90
6106;DHT22;3083;51.508;7.966;2022-11-04T07:30:25;9.20;99.90
6106;DHT22;3083;51.508;7.966;2022-11-04T07:32:52;9.30;99.90
6106;DHT22;3083;51.508;7.966;2022-11-04T07:35:19;9.30;99.90
6106;DHT22;3083;51.508;7.966;2022-11-04T07:37:46;9.30;99.90
6106;DHT22;3083;51.508;7.966;2022-11-04T07:40:13;9.40;99.90
6106;DHT22;3083;51.508;7.966;2022-11-04T07:42:40;9.40;99.90
6106;DHT22;3083;51.508;7.966;2022-11-04T07:45:09;9.40;99.90
6106;DHT22;3083;51.508;7.966;2022-11-04T07:47:36;9.50;99.90
6106;DHT22;3083;51.508;7.966;2022-11-04T07:50:03;9.50;99.90
6106;DHT22;3083;51.508;7.966;2022-11-04T07:52:30;9.60;99.90
6106;DHT22;3083;51.508;7.966;2022-11-04T07:54:57;9.70;99.90
6106;DHT22;3083;51.508;7.966;2022-11-04T07:57:24;9.80;99.90
6106;DHT22;3083;51.508;7.966;2022-11-04T07:59:51;9.90;99.90
6106;DHT22;3083;51.508;7.966;2022-11-04T08:02:20;10.00;99.90
6106;DHT22;3083;51.508;7.966;2022-11-04T08:04:46;10.10;99.90
6106;DHT22;3083;51.508;7.966;2022-11-04T08:07:15;10.20;99.90
6106;DHT22;3083;51.508;7.966;2022-11-04T08:09:42;10.30;99.90
6106;DHT22;3083;51.508;7.966;2022-11-04T08:12:09;10.30;99.90
6106;DHT22;3083;51.508;7.966;2022-11-04T08:14:36;10.40;99.90
6106;DHT22;3083;51.508;7.966;2022-11-04T08:17:03;10.40;99.90
6106;DHT22;3083;51.508;7.966;2022-11-04T08:19:31;10.50;99.90
6106;DHT22;3083;51.508;7.966;2022-11-04T08:21:58;10.60;99.90
6106;DHT22;3083;51.508;7.966;2022-11-04T08:24:25;10.70;99.90
6106;DHT22;3083;51.508;7.966;2022-11-04T08:26:52;10.80;99.90
6106;DHT22;3083;51.508;7.966;2022-11-04T08:29:19;10.90;99.90
6106;DHT22;3083;51.508;7.966;2022-11-04T08:31:46;11.00;99.90
6106;DHT22;3083;51.508;7.966;2022-11-04T08:34:13;11.00;99.90
6106;DHT22;3083;51.508;7.966;2022-11-04T08:36:44;11.10;99.90
6106;DHT22;3083;51.508;7.966;2022-11-04T08:39:12;11.20;99.90
6106;DHT22;3083;51.508;7.966;2022-11-04T08:41:40;11.20;99.90
6106;DHT22;3083;51.508;7.966;2022-11-04T08:44:10;11.20;99.90
6106;DHT22;3083;51.508;7.966;2022-11-04T08:46:37;11.30;99.90
6106;DHT22;3083;51.508;7.966;2022-11-04T08:49:04;11.30;99.90
6106;DHT22;3083;51.508;7.966;2022-11-04T08:51:33;11.30;99.90
6106;DHT22;3083;51.508;7.966;2022-11-04T08:54:04;11.40;99.90
6106;DHT22;3083;51.508;7.966;2022-11-04T08:56:33;11.40;99.90
6106;DHT22;3083;51.508;7.966;2022-11-04T08:59:01;11.50;99.90
6106;DHT22;3083;51.508;7.966;2022-11-04T09:01:32;11.60;99.90
6106;DHT22;3083;51.508;7.966;2022-11-04T09:03:59;11.70;99.90
6106;DHT22;3083;51.508;7.966;2022-11-04T09:06:29;11.70;99.90
6106;DHT22;3083;51.508;7.966;2022-11-04T09:08:56;11.70;99.90
6106;DHT22;3083;51.508;7.966;2022-11-04T09:11:30;11.60;99.90
6106;DHT22;3083;51.508;7.966;2022-11-04T09:13:58;11.60;99.90
6106;DHT22;3083;51.508;7.966;2022-11-04T09:16:27;11.70;99.90
6106;DHT22;3083;51.508;7.966;2022-11-04T09:18:56;11.90;99.90
6106;DHT22;3083;51.508;7.966;2022-11-04T09:21:23;12.00;99.90
6106;DHT22;3083;51.508;7.966;2022-11-04T09:23:50;12.20;99.90
6106;DHT22;3083;51.508;7.966;2022-11-04T09:26:18;12.30;99.90
6106;DHT22;3083;51.508;7.966;2022-11-04T09:28:46;12.40;99.90
6106;DHT22;3083;51.508;7.966;2022-11-04T09:31:15;12.50;99.90
6106;DHT22;3083;51.508;7.966;2022-11-04T09:33:43;12.70;99.90
6106;DHT22;3083;51.508;7.966;2022-11-04T09:36:11;12.80;99.90
6106;DHT22;3083;51.508;7.966;2022-11-04T09:38:39;13.10;99.90
6106;DHT22;3083;51.508;7.966;2022-11-04T09:44:17;13.40;99.90
6106;DHT22;3083;51.508;7.966;2022-11-04T09:46:47;13.60;99.90
6106;DHT22;3083;51.508;7.966;2022-11-04T09:49:15;13.70;99.90
6106;DHT22;3083;51.508;7.966;2022-11-04T09:51:43;13.70;99.90
6106;DHT22;3083;51.508;7.966;2022-11-04T09:54:17;13.70;99.90
6106;DHT22;3083;51.508;7.966;2022-11-04T09:56:48;13.70;99.90
6106;DHT22;3083;51.508;7.966;2022-11-04T09:59:20;13.70;99.90
6106;DHT22;3083;51.508;7.966;2022-11-04T10:01:58;13.60;99.90
6106;DHT22;3083;51.508;7.966;2022-11-04T10:04:39;13.50;99.90
6106;DHT22;3083;51.508;7.966;2022-11-04T10:07:20;13.50;99.90
6106;DHT22;3083;51.508;7.966;2022-11-04T10:09:57;13.70;99.90
6106;DHT22;3083;51.508;7.966;2022-11-04T10:12:41;13.90;99.90
6106;DHT22;3083;51.508;7.966;2022-11-04T10:15:31;14.10;99.90
6106;DHT22;3083;51.508;7.966;2022-11-04T10:18:10;14.20;99.90
6106;DHT22;3083;51.508;7.966;2022-11-04T10:20:48;14.30;99.90
6106;DHT22;3083;51.508;7.966;2022-11-04T10:23:21;14.30;99.90
6106;DHT22;3083;51.508;7.966;2022-11-04T10:25:52;14.40;99.90
6106;DHT22;3083;51.508;7.966;2022-11-04T10:28:27;14.50;99.90
6106;DHT22;3083;51.508;7.966;2022-11-04T10:30:57;14.40;99.90
6106;DHT22;3083;51.508;7.966;2022-11-04T10:33:29;14.30;99.90
6106;DHT22;3083;51.508;7.966;2022-11-04T10:36:01;14.40;99.90
6106;DHT22;3083;51.508;7.966;2022-11-04T10:38:34;14.60;99.90
6106;DHT22;3083;51.508;7.966;2022-11-04T10:41:14;15.00;99.90
6106;DHT22;3083;51.508;7.966;2022-11-04T10:43:43;15.20;99.90
6106;DHT22;3083;51.508;7.966;2022-11-04T10:46:41;15.30;99.90
6106;DHT22;3083;51.508;7.966;2022-11-04T10:49:40;15.70;99.90
6106;DHT22;3083;51.508;7.966;2022-11-04T10:52:09;15.80;99.90
6106;DHT22;3083;51.508;7.966;2022-11-04T10:54:39;15.60;99.90
6106;DHT22;3083;51.508;7.966;2022-11-04T10:57:08;15.20;99.90
6106;DHT22;3083;51.508;7.966;2022-11-04T10:59:46;15.00;99.90
6106;DHT22;3083;51.508;7.966;2022-11-04T11:02:17;14.80;99.90
6106;DHT22;3083;51.508;7.966;2022-11-04T11:04:45;14.90;99.90
6106;DHT22;3083;51.508;7.966;2022-11-04T11:07:14;14.90;99.90
6106;DHT22;3083;51.508;7.966;2022-11-04T11:09:52;15.00;99.90
6106;DHT22;3083;51.508;7.966;2022-11-04T11:12:23;15.00;99.90
6106;DHT22;3083;51.508;7.966;2022-11-04T11:14:56;15.00;99.90
6106;DHT22;3083;51.508;7.966;2022-11-04T11:17:34;14.90;99.90
6106;DHT22;3083;51.508;7.966;2022-11-04T11:20:18;14.90;99.90
6106;DHT22;3083;51.508;7.966;2022-11-04T11:22:47;14.70;99.90
6106;DHT22;3083;51.508;7.966;2022-11-04T11:25:25;14.60;99.90
6106;DHT22;3083;51.508;7.966;2022-11-04T11:27:55;14.50;99.90
6106;DHT22;3083;51.508;7.966;2022-11-04T11:30:26;14.30;99.90
6106;DHT22;3083;51.508;7.966;2022-11-04T11:32:58;14.30;99.90
6106;DHT22;3083;51.508;7.966;2022-11-04T11:35:30;14.30;99.90
6106;DHT22;3083;51.508;7.966;2022-11-04T11:37:59;14.20;99.90
6106;DHT22;3083;51.508;7.966;2022-11-04T11:40:30;14.10;99.90
6106;DHT22;3083;51.508;7.966;2022-11-04T11:43:01;14.00;99.90
6106;DHT22;3083;51.508;7.966;2022-11-04T11:45:29;13.90;99.90
6106;DHT22;3083;51.508;7.966;2022-11-04T11:47:58;13.80;99.90
6106;DHT22;3083;51.508;7.966;2022-11-04T11:50:27;13.70;99.90
6106;DHT22;3083;51.508;7.966;2022-11-04T11:53:16;13.70;99.90
6106;DHT22;3083;51.508;7.966;2022-11-04T11:55:55;13.60;99.90
6106;DHT22;3083;51.508;7.966;2022-11-04T11:58:28;13.50;99.90
6106;DHT22;3083;51.508;7.966;2022-11-04T12:01:01;13.50;99.90
6106;DHT22;3083;51.508;7.966;2022-11-04T12:03:32;13.40;99.90
6106;DHT22;3083;51.508;7.966;2022-11-04T12:06:16;13.40;99.90
6106;DHT22;3083;51.508;7.966;2022-11-04T12:09:17;13.40;99.90
6106;DHT22;3083;51.508;7.966;2022-11-04T12:12:27;13.40;99.90
6106;DHT22;3083;51.508;7.966;2022-11-04T12:15:16;13.40;99.90
6106;DHT22;3083;51.508;7.966;2022-11-04T12:18:00;13.60;99.90
6106;DHT22;3083;51.508;7.966;2022-11-04T12:20:42;13.70;99.90
6106;DHT22;3083;51.508;7.966;2022-11-04T12:23:18;13.80;99.90
6106;DHT22;3083;51.508;7.966;2022-11-04T12:25:53;13.80;99.90
6106;DHT22;3083;51.508;7.966;2022-11-04T12:28:33;13.80;99.90
6106;DHT22;3083;51.508;7.966;2022-11-04T12:31:13;13.90;99.90
6106;DHT22;3083;51.508;7.966;2022-11-04T12:33:48;13.90;99.90
6106;DHT22;3083;51.508;7.966;2022-11-04T12:36:36;13.90;99.90
6106;DHT22;3083;51.508;7.966;2022-11-04T12:39:44;14.00;99.90
6106;DHT22;3083;51.508;7.966;2022-11-04T12:42:21;14.00;99.90
6106;DHT22;3083;51.508;7.966;2022-11-04T12:45:00;14.00;99.90
6106;DHT22;3083;51.508;7.966;2022-11-04T12:47:34;14.00;99.90
6106;DHT22;3083;51.508;7.966;2022-11-04T12:50:24;14.00;99.90
6106;DHT22;3083;51.508;7.966;2022-11-04T13:06:27;14.00;99.90
6106;DHT22;3083;51.508;7.966;2022-11-04T13:08:59;13.80;99.90
6106;DHT22;3083;51.508;7.966;2022-11-04T13:11:32;13.80;99.90
6106;DHT22;3083;51.508;7.966;2022-11-04T13:14:05;13.70;99.90
6106;DHT22;3083;51.508;7.966;2022-11-04T13:16:38;13.50;99.90
6106;DHT22;3083;51.508;7.966;2022-11-04T13:19:19;13.40;99.90
6106;DHT22;3083;51.508;7.966;2022-11-04T13:21:50;13.30;99.90
6106;DHT22;3083;51.508;7.966;2022-11-04T13:24:24;13.10;99.90
6106;DHT22;3083;51.508;7.966;2022-11-04T13:26:59;13.00;99.90
6106;DHT22;3083;51.508;7.966;2022-11-04T13:29:28;13.00;99.90
6106;DHT22;3083;51.508;7.966;2022-11-04T13:32:02;12.90;99.90
6106;DHT22;3083;51.508;7.966;2022-11-04T13:34:36;13.00;99.90
6106;DHT22;3083;51.508;7.966;2022-11-04T13:37:15;12.90;99.90
6106;DHT22;3083;51.508;7.966;2022-11-04T13:39:47;12.90;99.90
6106;DHT22;3083;51.508;7.966;2022-11-04T13:42:34;12.80;99.90
6106;DHT22;3083;51.508;7.966;2022-11-04T13:45:07;12.80;99.90
6106;DHT22;3083;51.508;7.966;2022-11-04T13:47:36;12.70;99.90
6106;DHT22;3083;51.508;7.966;2022-11-04T13:50:26;12.60;99.90
6106;DHT22;3083;51.508;7.966;2022-11-04T13:52:55;12.60;99.90
6106;DHT22;3083;51.508;7.966;2022-11-04T13:55:22;12.60;99.90
6106;DHT22;3083;51.508;7.966;2022-11-04T13:57:52;12.50;99.90
6106;DHT22;3083;51.508;7.966;2022-11-04T14:00:22;12.60;99.90
6106;DHT22;3083;51.508;7.966;2022-11-04T14:02:51;12.60;99.90
6106;DHT22;3083;51.508;7.966;2022-11-04T14:08:25;12.60;99.90
6106;DHT22;3083;51.508;7.966;2022-11-04T14:11:09;12.60;99.90
6106;DHT22;3083;51.508;7.966;2022-11-04T14:16:42;12.60;99.90
6106;DHT22;3083;51.508;7.966;2022-11-04T14:22:47;12.50;99.90
6106;DHT22;3083;51.508;7.966;2022-11-04T14:25:22;12.50;99.90
6106;DHT22;3083;51.508;7.966;2022-11-04T14:27:52;12.50;99.90
6106;DHT22;3083;51.508;7.966;2022-11-04T14:30:33;12.40;99.90
6106;DHT22;3083;51.508;7.966;2022-11-04T14:33:05;12.40;99.90
6106;DHT22;3083;51.508;7.966;2022-11-04T14:35:34;12.40;99.90
6106;DHT22;3083;51.508;7.966;2022-11-04T14:38:24;12.40;99.90
6106;DHT22;3083;51.508;7.966;2022-11-04T14:41:11;12.40;99.90
6106;DHT22;3083;51.508;7.966;2022-11-04T14:43:41;12.40;99.90
6106;DHT22;3083;51.508;7.966;2022-11-04T14:46:16;12.30;99.90
6106;DHT22;3083;51.508;7.966;2022-11-04T14:48:48;12.30;99.90
6106;DHT22;3083;51.508;7.966;2022-11-04T14:51:22;12.20;99.90
6106;DHT22;3083;51.508;7.966;2022-11-04T14:53:55;12.20;99.90
6106;DHT22;3083;51.508;7.966;2022-11-04T14:56:27;12.10;99.90
6106;DHT22;3083;51.508;7.966;2022-11-04T14:58:55;12.10;99.90
6106;DHT22;3083;51.508;7.966;2022-11-04T15:01:23;12.10;99.90
6106;DHT22;3083;51.508;7.966;2022-11-04T15:03:52;12.10;99.90
6106;DHT22;3083;51.508;7.966;2022-11-04T15:06:25;12.00;99.90
6106;DHT22;3083;51.508;7.966;2022-11-04T15:08:53;11.90;99.90
6106;DHT22;3083;51.508;7.966;2022-11-04T15:11:23;11.90;99.90
6106;DHT22;3083;51.508;7.966;2022-11-04T15:14:21;11.80;99.90
6106;DHT22;3083;51.508;7.966;2022-11-04T15:16:50;11.70;99.90
6106;DHT22;3083;51.508;7.966;2022-11-04T15:19:32;11.70;99.90
6106;DHT22;3083;51.508;7.966;2022-11-04T15:22:01;11.60;99.90
6106;DHT22;3083;51.508;7.966;2022-11-04T15:24:29;11.60;99.90
6106;DHT22;3083;51.508;7.966;2022-11-04T15:27:00;11.50;99.90
6106;DHT22;3083;51.508;7.966;2022-11-04T15:29:31;11.50;99.90
6106;DHT22;3083;51.508;7.966;2022-11-04T15:32:01;11.50;99.90
6106;DHT22;3083;51.508;7.966;2022-11-04T15:34:29;11.40;99.90
6106;DHT22;3083;51.508;7.966;2022-11-04T15:37:00;11.40;99.90
6106;DHT22;3083;51.508;7.966;2022-11-04T15:39:30;11.40;99.90
6106;DHT22;3083;51.508;7.966;2022-11-04T15:42:00;11.40;99.90
6106;DHT22;3083;51.508;7.966;2022-11-04T15:44:49;11.30;99.90
6106;DHT22;3083;51.508;7.966;2022-11-04T15:47:23;11.30;99.90
6106;DHT22;3083;51.508;7.966;2022-11-04T15:49:53;11.20;99.90
6106;DHT22;3083;51.508;7.966;2022-11-04T15:52:27;11.20;99.90
6106;DHT22;3083;51.508;7.966;2022-11-04T15:54:56;11.20;99.90
6106;DHT22;3083;51.508;7.966;2022-11-04T15:57:26;11.20;99.90
6106;DHT22;3083;51.508;7.966;2022-11-04T15:59:58;11.20;99.90
6106;DHT22;3083;51.508;7.966;2022-11-04T16:02:28;11.10;99.90
6106;DHT22;3083;51.508;7.966;2022-11-04T16:05:03;11.10;99.90
6106;DHT22;3083;51.508;7.966;2022-11-04T16:07:35;11.10;99.90
6106;DHT22;3083;51.508;7.966;2022-11-04T16:10:19;11.00;99.90
6106;DHT22;3083;51.508;7.966;2022-11-04T16:12:49;11.00;99.90
6106;DHT22;3083;51.508;7.966;2022-11-04T16:15:34;10.90;99.90
6106;DHT22;3083;51.508;7.966;2022-11-04T16:18:02;10.90;99.90
6106;DHT22;3083;51.508;7.966;2022-11-04T16:20:30;10.90;99.90
6106;DHT22;3083;51.508;7.966;2022-11-04T16:23:00;10.90;99.90
6106;DHT22;3083;51.508;7.966;2022-11-04T16:25:29;10.90;99.90
6106;DHT22;3083;51.508;7.966;2022-11-04T16:27:58;10.80;99.90
6106;DHT22;3083;51.508;7.966;2022-11-04T16:30:32;10.80;99.90
6106;DHT22;3083;51.508;7.966;2022-11-04T16:33:07;10.80;99.90
6106;DHT22;3083;51.508;7.966;2022-11-04T16:35:35;10.70;99.90
6106;DHT22;3083;51.508;7.966;2022-11-04T16:38:07;10.70;99.90
6106;DHT22;3083;51.508;7.966;2022-11-04T16:40:36;10.60;99.90
6106;DHT22;3083;51.508;7.966;2022-11-04T16:43:03;10.60;99.90
6106;DHT22;3083;51.508;7.966;2022-11-04T16:45:33;10.60;99.90
6106;DHT22;3083;51.508;7.966;2022-11-04T16:48:01;10.60;99.90
6106;DHT22;3083;51.508;7.966;2022-11-04T16:50:28;10.60;99.90
6106;DHT22;3083;51.508;7.966;2022-11-04T16:52:57;10.60;99.90
6106;DHT22;3083;51.508;7.966;2022-11-04T16:55:24;10.60;99.90
6106;DHT22;3083;51.508;7.966;2022-11-04T16:57:55;10.60;99.90
6106;DHT22;3083;51.508;7.966;2022-11-04T17:00:25;10.50;99.90
6106;DHT22;3083;51.508;7.966;2022-11-04T17:02:53;10.60;99.90
6106;DHT22;3083;51.508;7.966;2022-11-04T17:05:20;10.60;99.90
6106;DHT22;3083;51.508;7.966;2022-11-04T17:07:47;10.60;99.90
6106;DHT22;3083;51.508;7.966;2022-11-04T17:10:17;10.50;99.90